sensor_id;sensor_type;location;lat;lon;timestamp;P1;durP1;ratioP1;P2;durP2;ratioP2
46717;SDS011;32448;44.960;-0.698;2022-07-22T00:01:04;6.70;;;4.07;;
46717;SDS011;32448;44.960;-0.698;2022-07-22T00:03:30;6.00;;;3.97;;
46717;SDS011;32448;44.960;-0.698;2022-07-22T00:05:55;7.15;;;4.10;;
46717;SDS011;32448;44.960;-0.698;2022-07-22T00:08:21;6.05;;;3.83;;
46717;SDS011;32448;44.960;-0.698;2022-07-22T00:10:47;6.40;;;3.97;;
46717;SDS011;32448;44.960;-0.698;2022-07-22T00:13:13;6.13;;;4.18;;
46717;SDS011;32448;44.960;-0.698;2022-07-22T00:15:38;6.47;;;3.63;;
46717;SDS011;32448;44.960;-0.698;2022-07-22T00:18:04;7.88;;;4.57;;
46717;SDS011;32448;44.960;-0.698;2022-07-22T00:20:30;6.45;;;4.20;;
46717;SDS011;32448;44.960;-0.698;2022-07-22T00:22:55;5.38;;;3.80;;
46717;SDS011;32448;44.960;-0.698;2022-07-22T00:25:21;7.40;;;3.92;;
46717;SDS011;32448;44.960;-0.698;2022-07-22T00:27:47;4.15;;;3.58;;
46717;SDS011;32448;44.960;-0.698;2022-07-22T00:30:12;6.20;;;3.88;;
46717;SDS011;32448;44.960;-0.698;2022-07-22T00:32:38;5.03;;;3.83;;
46717;SDS011;32448;44.960;-0.698;2022-07-22T00:35:04;5.47;;;4.05;;
46717;SDS011;32448;44.960;-0.698;2022-07-22T00:37:30;5.85;;;3.85;;
46717;SDS011;32448;44.960;-0.698;2022-07-22T00:39:56;5.40;;;4.22;;
46717;SDS011;32448;44.960;-0.698;2022-07-22T00:42:21;5.53;;;4.25;;
46717;SDS011;32448;44.960;-0.698;2022-07-22T00:44:47;6.22;;;3.90;;
46717;SDS011;32448;44.960;-0.698;2022-07-22T00:47:13;4.97;;;4.10;;
46717;SDS011;32448;44.960;-0.698;2022-07-22T00:49:39;8.07;;;4.40;;
46717;SDS011;32448;44.960;-0.698;2022-07-22T00:52:04;6.25;;;4.10;;
46717;SDS011;32448;44.960;-0.698;2022-07-22T00:54:31;5.78;;;4.55;;
46717;SDS011;32448;44.960;-0.698;2022-07-22T00:56:57;5.93;;;4.18;;
46717;SDS011;32448;44.960;-0.698;2022-07-22T00:59:23;5.80;;;3.85;;
46717;SDS011;32448;44.960;-0.698;2022-07-22T01:01:49;5.72;;;4.07;;
46717;SDS011;32448;44.960;-0.698;2022-07-22T01:04:14;6.82;;;4.20;;
46717;SDS011;32448;44.960;-0.698;2022-07-22T01:06:40;7.35;;;4.40;;
46717;SDS011;32448;44.960;-0.698;2022-07-22T01:09:09;5.70;;;4.10;;
46717;SDS011;32448;44.960;-0.698;2022-07-22T01:11:36;5.88;;;4.45;;
46717;SDS011;32448;44.960;-0.698;2022-07-22T01:14:02;5.28;;;4.20;;
46717;SDS011;32448;44.960;-0.698;2022-07-22T01:16:28;5.10;;;3.92;;
46717;SDS011;32448;44.960;-0.698;2022-07-22T01:18:54;6.55;;;4.15;;
46717;SDS011;32448;44.960;-0.698;2022-07-22T01:21:20;7.38;;;4.63;;
46717;SDS011;32448;44.960;-0.698;2022-07-22T01:23:46;6.13;;;4.20;;
46717;SDS011;32448;44.960;-0.698;2022-07-22T01:26:12;7.50;;;4.72;;
46717;SDS011;32448;44.960;-0.698;2022-07-22T01:28:39;6.30;;;4.15;;
46717;SDS011;32448;44.960;-0.698;2022-07-22T01:31:05;5.15;;;4.35;;
46717;SDS011;32448;44.960;-0.698;2022-07-22T01:33:31;7.38;;;4.40;;
46717;SDS011;32448;44.960;-0.698;2022-07-22T01:35:57;4.50;;;4.10;;
46717;SDS011;32448;44.960;-0.698;2022-07-22T01:38:22;7.15;;;4.68;;
46717;SDS011;32448;44.960;-0.698;2022-07-22T01:40:48;6.45;;;4.40;;
46717;SDS011;32448;44.960;-0.698;2022-07-22T01:43:14;6.30;;;4.65;;
46717;SDS011;32448;44.960;-0.698;2022-07-22T01:45:43;6.88;;;4.50;;
46717;SDS011;32448;44.960;-0.698;2022-07-22T01:48:12;5.72;;;4.15;;
46717;SDS011;32448;44.960;-0.698;2022-07-22T01:50:39;7.13;;;4.40;;
46717;SDS011;32448;44.960;-0.698;2022-07-22T01:53:06;5.50;;;4.57;;
46717;SDS011;32448;44.960;-0.698;2022-07-22T01:55:32;7.40;;;4.70;;
46717;SDS011;32448;44.960;-0.698;2022-07-22T01:57:58;5.53;;;4.57;;
46717;SDS011;32448;44.960;-0.698;2022-07-22T02:00:24;5.30;;;4.00;;
46717;SDS011;32448;44.960;-0.698;2022-07-22T02:02:49;5.13;;;4.55;;
46717;SDS011;32448;44.960;-0.698;2022-07-22T02:05:15;6.50;;;4.10;;
46717;SDS011;32448;44.960;-0.698;2022-07-22T02:07:41;8.63;;;4.85;;
46717;SDS011;32448;44.960;-0.698;2022-07-22T02:10:07;5.78;;;5.18;;
46717;SDS011;32448;44.960;-0.698;2022-07-22T02:12:33;7.25;;;4.50;;
46717;SDS011;32448;44.960;-0.698;2022-07-22T02:14:59;6.32;;;4.80;;
46717;SDS011;32448;44.960;-0.698;2022-07-22T02:17:24;6.57;;;4.70;;
46717;SDS011;32448;44.960;-0.698;2022-07-22T02:19:50;6.18;;;5.03;;
46717;SDS011;32448;44.960;-0.698;2022-07-22T02:22:16;6.70;;;4.93;;
46717;SDS011;32448;44.960;-0.698;2022-07-22T02:24:42;8.35;;;4.85;;
46717;SDS011;32448;44.960;-0.698;2022-07-22T02:27:07;7.28;;;4.82;;
46717;SDS011;32448;44.960;-0.698;2022-07-22T02:29:33;7.53;;;4.75;;
46717;SDS011;32448;44.960;-0.698;2022-07-22T02:31:59;6.72;;;5.47;;
46717;SDS011;32448;44.960;-0.698;2022-07-22T02:34:25;8.02;;;4.78;;
46717;SDS011;32448;44.960;-0.698;2022-07-22T02:36:51;6.72;;;4.90;;
46717;SDS011;32448;44.960;-0.698;2022-07-22T02:39:17;8.85;;;5.35;;
46717;SDS011;32448;44.960;-0.698;2022-07-22T02:41:43;8.18;;;4.68;;
46717;SDS011;32448;44.960;-0.698;2022-07-22T02:44:09;8.68;;;5.32;;
46717;SDS011;32448;44.960;-0.698;2022-07-22T02:46:35;8.55;;;5.40;;
46717;SDS011;32448;44.960;-0.698;2022-07-22T02:49:00;8.80;;;5.07;;
46717;SDS011;32448;44.960;-0.698;2022-07-22T02:54:49;6.68;;;4.95;;
46717;SDS011;32448;44.960;-0.698;2022-07-22T02:57:15;6.75;;;5.40;;
46717;SDS011;32448;44.960;-0.698;2022-07-22T02:59:40;7.25;;;5.32;;
46717;SDS011;32448;44.960;-0.698;2022-07-22T03:02:06;6.93;;;5.35;;
46717;SDS011;32448;44.960;-0.698;2022-07-22T03:04:32;6.85;;;5.00;;
46717;SDS011;32448;44.960;-0.698;2022-07-22T03:07:07;7.32;;;5.05;;
46717;SDS011;32448;44.960;-0.698;2022-07-22T03:09:51;6.50;;;5.20;;
46717;SDS011;32448;44.960;-0.698;2022-07-22T03:12:23;6.80;;;5.30;;
46717;SDS011;32448;44.960;-0.698;2022-07-22T03:14:52;7.20;;;5.40;;
46717;SDS011;32448;44.960;-0.698;2022-07-22T03:17:17;8.02;;;5.43;;
46717;SDS011;32448;44.960;-0.698;2022-07-22T03:19:46;7.47;;;5.55;;
46717;SDS011;32448;44.960;-0.698;2022-07-22T03:22:17;6.82;;;5.50;;
46717;SDS011;32448;44.960;-0.698;2022-07-22T03:24:43;8.60;;;5.72;;
46717;SDS011;32448;44.960;-0.698;2022-07-22T03:27:08;8.27;;;5.38;;
46717;SDS011;32448;44.960;-0.698;2022-07-22T03:29:37;6.93;;;5.88;;
46717;SDS011;32448;44.960;-0.698;2022-07-22T03:32:06;7.05;;;5.45;;
46717;SDS011;32448;44.960;-0.698;2022-07-22T03:34:37;8.48;;;5.68;;
46717;SDS011;32448;44.960;-0.698;2022-07-22T03:37:09;11.73;;;5.82;;
46717;SDS011;32448;44.960;-0.698;2022-07-22T03:39:35;7.15;;;5.10;;
46717;SDS011;32448;44.960;-0.698;2022-07-22T03:42:01;6.57;;;5.20;;
46717;SDS011;32448;44.960;-0.698;2022-07-22T03:44:27;6.65;;;5.22;;
46717;SDS011;32448;44.960;-0.698;2022-07-22T03:46:52;7.75;;;5.88;;
46717;SDS011;32448;44.960;-0.698;2022-07-22T03:49:18;7.43;;;5.47;;
46717;SDS011;32448;44.960;-0.698;2022-07-22T03:51:44;8.02;;;5.50;;
46717;SDS011;32448;44.960;-0.698;2022-07-22T03:54:10;6.38;;;5.03;;
46717;SDS011;32448;44.960;-0.698;2022-07-22T03:56:35;8.32;;;5.30;;
46717;SDS011;32448;44.960;-0.698;2022-07-22T03:59:01;7.88;;;5.50;;
46717;SDS011;32448;44.960;-0.698;2022-07-22T04:01:27;8.73;;;6.20;;
46717;SDS011;32448;44.960;-0.698;2022-07-22T04:03:53;8.73;;;5.72;;
46717;SDS011;32448;44.960;-0.698;2022-07-22T04:06:18;7.78;;;6.30;;
46717;SDS011;32448;44.960;-0.698;2022-07-22T04:08:44;7.03;;;5.80;;
46717;SDS011;32448;44.960;-0.698;2022-07-22T04:11:09;7.97;;;6.25;;
46717;SDS011;32448;44.960;-0.698;2022-07-22T04:13:35;9.30;;;6.18;;
46717;SDS011;32448;44.960;-0.698;2022-07-22T04:16:01;9.50;;;6.15;;
46717;SDS011;32448;44.960;-0.698;2022-07-22T04:18:29;10.90;;;6.35;;
46717;SDS011;32448;44.960;-0.698;2022-07-22T04:20:55;6.38;;;5.50;;
46717;SDS011;32448;44.960;-0.698;2022-07-22T04:23:21;9.32;;;5.45;;
46717;SDS011;32448;44.960;-0.698;2022-07-22T04:25:47;6.75;;;5.60;;
46717;SDS011;32448;44.960;-0.698;2022-07-22T04:28:12;6.93;;;5.55;;
46717;SDS011;32448;44.960;-0.698;2022-07-22T04:30:38;8.68;;;5.90;;
46717;SDS011;32448;44.960;-0.698;2022-07-22T04:33:04;7.38;;;5.60;;
46717;SDS011;32448;44.960;-0.698;2022-07-22T04:35:30;8.77;;;6.47;;
46717;SDS011;32448;44.960;-0.698;2022-07-22T04:37:56;9.65;;;6.20;;
46717;SDS011;32448;44.960;-0.698;2022-07-22T04:40:22;8.95;;;5.93;;
46717;SDS011;32448;44.960;-0.698;2022-07-22T04:42:47;7.63;;;6.30;;
46717;SDS011;32448;44.960;-0.698;2022-07-22T04:45:14;8.27;;;5.75;;
46717;SDS011;32448;44.960;-0.698;2022-07-22T04:47:43;5.78;;;5.18;;
46717;SDS011;32448;44.960;-0.698;2022-07-22T04:50:13;7.72;;;5.47;;
46717;SDS011;32448;44.960;-0.698;2022-07-22T04:52:42;8.55;;;6.03;;
46717;SDS011;32448;44.960;-0.698;2022-07-22T04:55:09;5.88;;;5.03;;
46717;SDS011;32448;44.960;-0.698;2022-07-22T04:57:35;7.55;;;5.75;;
46717;SDS011;32448;44.960;-0.698;2022-07-22T05:00:01;7.75;;;5.68;;
46717;SDS011;32448;44.960;-0.698;2022-07-22T05:02:29;10.52;;;6.15;;
46717;SDS011;32448;44.960;-0.698;2022-07-22T05:04:55;7.28;;;5.68;;
46717;SDS011;32448;44.960;-0.698;2022-07-22T05:07:21;8.88;;;5.93;;
46717;SDS011;32448;44.960;-0.698;2022-07-22T05:09:47;6.57;;;5.47;;
46717;SDS011;32448;44.960;-0.698;2022-07-22T05:12:13;9.68;;;5.95;;
46717;SDS011;32448;44.960;-0.698;2022-07-22T05:14:39;7.55;;;5.53;;
46717;SDS011;32448;44.960;-0.698;2022-07-22T05:17:08;9.75;;;6.15;;
46717;SDS011;32448;44.960;-0.698;2022-07-22T05:19:38;10.10;;;5.80;;
46717;SDS011;32448;44.960;-0.698;2022-07-22T05:22:05;9.15;;;5.82;;
46717;SDS011;32448;44.960;-0.698;2022-07-22T05:24:32;7.68;;;5.28;;
46717;SDS011;32448;44.960;-0.698;2022-07-22T05:26:58;11.95;;;5.30;;
46717;SDS011;32448;44.960;-0.698;2022-07-22T05:29:24;8.05;;;5.40;;
46717;SDS011;32448;44.960;-0.698;2022-07-22T05:31:50;10.15;;;6.00;;
46717;SDS011;32448;44.960;-0.698;2022-07-22T05:34:19;7.72;;;5.50;;
46717;SDS011;32448;44.960;-0.698;2022-07-22T05:36:45;7.97;;;5.85;;
46717;SDS011;32448;44.960;-0.698;2022-07-22T05:39:11;7.07;;;5.10;;
46717;SDS011;32448;44.960;-0.698;2022-07-22T05:41:41;9.25;;;5.53;;
46717;SDS011;32448;44.960;-0.698;2022-07-22T05:44:08;10.25;;;5.65;;
46717;SDS011;32448;44.960;-0.698;2022-07-22T05:46:35;9.50;;;5.78;;
46717;SDS011;32448;44.960;-0.698;2022-07-22T05:49:00;17.13;;;5.95;;
46717;SDS011;32448;44.960;-0.698;2022-07-22T05:51:29;14.20;;;5.70;;
46717;SDS011;32448;44.960;-0.698;2022-07-22T05:53:56;13.73;;;5.63;;
46717;SDS011;32448;44.960;-0.698;2022-07-22T05:56:22;10.93;;;6.05;;
46717;SDS011;32448;44.960;-0.698;2022-07-22T05:58:47;11.05;;;5.70;;
46717;SDS011;32448;44.960;-0.698;2022-07-22T06:01:21;8.70;;;5.30;;
46717;SDS011;32448;44.960;-0.698;2022-07-22T06:03:47;10.68;;;5.18;;
46717;SDS011;32448;44.960;-0.698;2022-07-22T06:06:13;8.63;;;5.78;;
46717;SDS011;32448;44.960;-0.698;2022-07-22T06:08:39;14.52;;;6.15;;
46717;SDS011;32448;44.960;-0.698;2022-07-22T06:11:07;12.90;;;5.18;;
46717;SDS011;32448;44.960;-0.698;2022-07-22T06:13:36;20.83;;;6.28;;
46717;SDS011;32448;44.960;-0.698;2022-07-22T06:16:02;8.88;;;5.40;;
46717;SDS011;32448;44.960;-0.698;2022-07-22T06:18:29;14.32;;;5.32;;
46717;SDS011;32448;44.960;-0.698;2022-07-22T06:20:54;12.38;;;5.60;;
46717;SDS011;32448;44.960;-0.698;2022-07-22T06:23:20;9.10;;;5.45;;
46717;SDS011;32448;44.960;-0.698;2022-07-22T06:25:50;11.75;;;5.68;;
46717;SDS011;32448;44.960;-0.698;2022-07-22T06:28:16;10.82;;;5.40;;
46717;SDS011;32448;44.960;-0.698;2022-07-22T06:30:42;7.65;;;5.50;;
46717;SDS011;32448;44.960;-0.698;2022-07-22T06:33:09;11.57;;;5.65;;
46717;SDS011;32448;44.960;-0.698;2022-07-22T06:35:39;10.85;;;5.30;;
46717;SDS011;32448;44.960;-0.698;2022-07-22T06:38:06;12.00;;;5.43;;
46717;SDS011;32448;44.960;-0.698;2022-07-22T06:40:39;8.77;;;5.43;;
46717;SDS011;32448;44.960;-0.698;2022-07-22T06:43:05;12.13;;;5.50;;
46717;SDS011;32448;44.960;-0.698;2022-07-22T06:45:34;10.68;;;5.43;;
46717;SDS011;32448;44.960;-0.698;2022-07-22T06:48:00;8.43;;;5.35;;
46717;SDS011;32448;44.960;-0.698;2022-07-22T06:50:27;11.02;;;5.30;;
46717;SDS011;32448;44.960;-0.698;2022-07-22T06:52:55;13.50;;;5.40;;
46717;SDS011;32448;44.960;-0.698;2022-07-22T06:55:21;11.23;;;5.68;;
46717;SDS011;32448;44.960;-0.698;2022-07-22T06:57:47;8.82;;;4.93;;
46717;SDS011;32448;44.960;-0.698;2022-07-22T07:00:13;10.73;;;5.00;;
46717;SDS011;32448;44.960;-0.698;2022-07-22T07:02:40;6.88;;;4.95;;
46717;SDS011;32448;44.960;-0.698;2022-07-22T07:05:07;7.13;;;5.00;;
46717;SDS011;32448;44.960;-0.698;2022-07-22T07:07:33;9.75;;;4.88;;
46717;SDS011;32448;44.960;-0.698;2022-07-22T07:10:01;8.15;;;5.03;;
46717;SDS011;32448;44.960;-0.698;2022-07-22T07:12:30;9.25;;;4.55;;
46717;SDS011;32448;44.960;-0.698;2022-07-22T07:14:56;10.18;;;4.68;;
46717;SDS011;32448;44.960;-0.698;2022-07-22T07:17:26;5.65;;;4.43;;
46717;SDS011;32448;44.960;-0.698;2022-07-22T07:19:57;8.60;;;4.75;;
46717;SDS011;32448;44.960;-0.698;2022-07-22T07:22:24;7.28;;;4.47;;
46717;SDS011;32448;44.960;-0.698;2022-07-22T07:24:50;7.45;;;4.50;;
46717;SDS011;32448;44.960;-0.698;2022-07-22T07:27:17;15.73;;;4.80;;
46717;SDS011;32448;44.960;-0.698;2022-07-22T07:29:44;9.52;;;4.63;;
46717;SDS011;32448;44.960;-0.698;2022-07-22T07:32:11;10.50;;;4.85;;
46717;SDS011;32448;44.960;-0.698;2022-07-22T07:34:37;12.32;;;4.32;;
46717;SDS011;32448;44.960;-0.698;2022-07-22T07:37:04;7.28;;;4.75;;
46717;SDS011;32448;44.960;-0.698;2022-07-22T07:39:30;6.82;;;4.45;;
46717;SDS011;32448;44.960;-0.698;2022-07-22T07:41:56;7.05;;;4.65;;
46717;SDS011;32448;44.960;-0.698;2022-07-22T07:44:23;8.23;;;4.75;;
46717;SDS011;32448;44.960;-0.698;2022-07-22T07:46:49;6.13;;;4.45;;
46717;SDS011;32448;44.960;-0.698;2022-07-22T07:49:17;5.90;;;4.53;;
46717;SDS011;32448;44.960;-0.698;2022-07-22T07:51:43;6.82;;;4.72;;
46717;SDS011;32448;44.960;-0.698;2022-07-22T07:54:10;7.10;;;4.65;;
46717;SDS011;32448;44.960;-0.698;2022-07-22T07:56:36;9.18;;;4.30;;
46717;SDS011;32448;44.960;-0.698;2022-07-22T07:59:02;10.00;;;4.38;;
46717;SDS011;32448;44.960;-0.698;2022-07-22T08:01:29;9.23;;;4.97;;
46717;SDS011;32448;44.960;-0.698;2022-07-22T08:03:56;8.40;;;4.45;;
46717;SDS011;32448;44.960;-0.698;2022-07-22T08:06:23;7.70;;;4.20;;
46717;SDS011;32448;44.960;-0.698;2022-07-22T08:12:11;9.50;;;3.90;;
46717;SDS011;32448;44.960;-0.698;2022-07-22T08:14:37;6.93;;;3.92;;
46717;SDS011;32448;44.960;-0.698;2022-07-22T08:17:02;7.93;;;3.50;;
46717;SDS011;32448;44.960;-0.698;2022-07-22T08:19:28;8.30;;;3.50;;
46717;SDS011;32448;44.960;-0.698;2022-07-22T08:21:54;6.78;;;3.78;;
46717;SDS011;32448;44.960;-0.698;2022-07-22T08:24:19;9.38;;;3.70;;
46717;SDS011;32448;44.960;-0.698;2022-07-22T08:26:45;7.38;;;3.80;;
46717;SDS011;32448;44.960;-0.698;2022-07-22T08:29:11;15.10;;;3.65;;
46717;SDS011;32448;44.960;-0.698;2022-07-22T08:31:37;8.68;;;3.50;;
46717;SDS011;32448;44.960;-0.698;2022-07-22T08:34:04;4.40;;;2.90;;
46717;SDS011;32448;44.960;-0.698;2022-07-22T08:36:30;9.05;;;3.65;;
46717;SDS011;32448;44.960;-0.698;2022-07-22T08:39:01;8.23;;;3.17;;
46717;SDS011;32448;44.960;-0.698;2022-07-22T08:41:27;10.32;;;3.58;;
46717;SDS011;32448;44.960;-0.698;2022-07-22T08:44:02;7.07;;;3.45;;
46717;SDS011;32448;44.960;-0.698;2022-07-22T08:46:29;4.93;;;3.22;;
46717;SDS011;32448;44.960;-0.698;2022-07-22T08:49:04;8.45;;;3.33;;
46717;SDS011;32448;44.960;-0.698;2022-07-22T08:51:31;4.40;;;2.88;;
46717;SDS011;32448;44.960;-0.698;2022-07-22T08:53:58;8.65;;;2.88;;
46717;SDS011;32448;44.960;-0.698;2022-07-22T08:56:24;7.00;;;2.90;;
46717;SDS011;32448;44.960;-0.698;2022-07-22T08:58:51;7.25;;;2.72;;
46717;SDS011;32448;44.960;-0.698;2022-07-22T09:01:17;8.07;;;3.03;;
46717;SDS011;32448;44.960;-0.698;2022-07-22T09:03:44;9.93;;;2.63;;
46717;SDS011;32448;44.960;-0.698;2022-07-22T09:06:21;8.32;;;2.92;;
46717;SDS011;32448;44.960;-0.698;2022-07-22T09:08:53;5.82;;;2.33;;
46717;SDS011;32448;44.960;-0.698;2022-07-22T09:11:26;12.15;;;3.20;;
46717;SDS011;32448;44.960;-0.698;2022-07-22T09:13:57;7.83;;;2.37;;
46717;SDS011;32448;44.960;-0.698;2022-07-22T09:19:08;7.78;;;2.38;;
46717;SDS011;32448;44.960;-0.698;2022-07-22T09:21:36;8.57;;;2.38;;
46717;SDS011;32448;44.960;-0.698;2022-07-22T09:24:04;4.43;;;2.10;;
46717;SDS011;32448;44.960;-0.698;2022-07-22T09:26:35;5.45;;;2.00;;
46717;SDS011;32448;44.960;-0.698;2022-07-22T09:29:03;7.75;;;2.38;;
46717;SDS011;32448;44.960;-0.698;2022-07-22T09:31:34;5.25;;;2.00;;
46717;SDS011;32448;44.960;-0.698;2022-07-22T09:34:03;8.57;;;2.10;;
46717;SDS011;32448;44.960;-0.698;2022-07-22T09:36:30;4.68;;;2.08;;
46717;SDS011;32448;44.960;-0.698;2022-07-22T09:38:56;4.22;;;1.77;;
46717;SDS011;32448;44.960;-0.698;2022-07-22T09:41:23;6.57;;;2.13;;
46717;SDS011;32448;44.960;-0.698;2022-07-22T09:43:49;6.28;;;2.28;;
46717;SDS011;32448;44.960;-0.698;2022-07-22T09:46:16;4.55;;;2.17;;
46717;SDS011;32448;44.960;-0.698;2022-07-22T09:48:42;5.88;;;1.80;;
46717;SDS011;32448;44.960;-0.698;2022-07-22T09:51:08;5.10;;;1.88;;
46717;SDS011;32448;44.960;-0.698;2022-07-22T09:53:38;6.50;;;2.08;;
46717;SDS011;32448;44.960;-0.698;2022-07-22T09:56:05;6.07;;;2.05;;
46717;SDS011;32448;44.960;-0.698;2022-07-22T09:58:32;5.13;;;1.75;;
46717;SDS011;32448;44.960;-0.698;2022-07-22T10:00:58;6.50;;;1.88;;
46717;SDS011;32448;44.960;-0.698;2022-07-22T10:03:28;7.88;;;2.20;;
46717;SDS011;32448;44.960;-0.698;2022-07-22T10:05:56;9.38;;;1.88;;
46717;SDS011;32448;44.960;-0.698;2022-07-22T10:08:24;8.43;;;1.85;;
46717;SDS011;32448;44.960;-0.698;2022-07-22T10:10:51;3.95;;;1.77;;
46717;SDS011;32448;44.960;-0.698;2022-07-22T10:13:18;6.65;;;2.00;;
46717;SDS011;32448;44.960;-0.698;2022-07-22T10:15:44;5.10;;;1.92;;
46717;SDS011;32448;44.960;-0.698;2022-07-22T10:18:15;9.70;;;2.15;;
46717;SDS011;32448;44.960;-0.698;2022-07-22T10:20:43;8.70;;;2.07;;
46717;SDS011;32448;44.960;-0.698;2022-07-22T10:23:10;5.68;;;2.25;;
46717;SDS011;32448;44.960;-0.698;2022-07-22T10:25:52;6.68;;;2.50;;
46717;SDS011;32448;44.960;-0.698;2022-07-22T10:28:24;6.75;;;2.50;;
46717;SDS011;32448;44.960;-0.698;2022-07-22T10:30:52;7.05;;;2.63;;
46717;SDS011;32448;44.960;-0.698;2022-07-22T10:33:19;9.05;;;2.42;;
46717;SDS011;32448;44.960;-0.698;2022-07-22T10:35:53;7.35;;;2.45;;
46717;SDS011;32448;44.960;-0.698;2022-07-22T10:38:24;8.77;;;1.98;;
46717;SDS011;32448;44.960;-0.698;2022-07-22T10:40:52;5.13;;;3.03;;
46717;SDS011;32448;44.960;-0.698;2022-07-22T10:46:15;6.93;;;3.17;;
46717;SDS011;32448;44.960;-0.698;2022-07-22T10:51:08;12.85;;;3.13;;
46717;SDS011;32448;44.960;-0.698;2022-07-22T10:56:31;4.97;;;2.70;;
46717;SDS011;32448;44.960;-0.698;2022-07-22T10:59:12;7.97;;;2.90;;
46717;SDS011;32448;44.960;-0.698;2022-07-22T11:01:40;4.90;;;2.42;;
46717;SDS011;32448;44.960;-0.698;2022-07-22T11:04:15;7.65;;;3.17;;
46717;SDS011;32448;44.960;-0.698;2022-07-22T11:06:49;7.82;;;3.60;;
46717;SDS011;32448;44.960;-0.698;2022-07-22T11:11:51;8.27;;;3.77;;
46717;SDS011;32448;44.960;-0.698;2022-07-22T11:14:31;5.68;;;3.13;;
46717;SDS011;32448;44.960;-0.698;2022-07-22T11:22:41;6.25;;;3.58;;
46717;SDS011;32448;44.960;-0.698;2022-07-22T11:25:07;5.30;;;3.03;;
46717;SDS011;32448;44.960;-0.698;2022-07-22T11:27:35;6.55;;;3.28;;
46717;SDS011;32448;44.960;-0.698;2022-07-22T11:30:01;6.38;;;3.40;;
46717;SDS011;32448;44.960;-0.698;2022-07-22T11:32:29;9.48;;;3.13;;
46717;SDS011;32448;44.960;-0.698;2022-07-22T11:34:57;6.07;;;3.10;;
46717;SDS011;32448;44.960;-0.698;2022-07-22T11:37:27;6.28;;;3.70;;
46717;SDS011;32448;44.960;-0.698;2022-07-22T11:40:04;7.13;;;3.53;;
46717;SDS011;32448;44.960;-0.698;2022-07-22T11:42:31;5.65;;;3.30;;
46717;SDS011;32448;44.960;-0.698;2022-07-22T11:44:57;6.47;;;3.58;;
46717;SDS011;32448;44.960;-0.698;2022-07-22T11:47:24;5.63;;;3.35;;
46717;SDS011;32448;44.960;-0.698;2022-07-22T11:49:50;6.45;;;3.47;;
46717;SDS011;32448;44.960;-0.698;2022-07-22T11:52:18;6.30;;;3.00;;
46717;SDS011;32448;44.960;-0.698;2022-07-22T11:54:44;9.55;;;3.40;;
46717;SDS011;32448;44.960;-0.698;2022-07-22T11:57:11;4.80;;;2.50;;
46717;SDS011;32448;44.960;-0.698;2022-07-22T11:59:38;6.75;;;2.90;;
46717;SDS011;32448;44.960;-0.698;2022-07-22T12:02:10;6.55;;;2.90;;
46717;SDS011;32448;44.960;-0.698;2022-07-22T12:04:38;7.43;;;2.67;;
46717;SDS011;32448;44.960;-0.698;2022-07-22T12:07:09;7.90;;;3.17;;
46717;SDS011;32448;44.960;-0.698;2022-07-22T12:09:39;7.65;;;2.80;;
46717;SDS011;32448;44.960;-0.698;2022-07-22T12:12:10;5.40;;;2.53;;
46717;SDS011;32448;44.960;-0.698;2022-07-22T12:14:36;6.55;;;2.63;;
46717;SDS011;32448;44.960;-0.698;2022-07-22T12:17:11;6.40;;;2.80;;
46717;SDS011;32448;44.960;-0.698;2022-07-22T12:19:37;7.05;;;2.75;;
46717;SDS011;32448;44.960;-0.698;2022-07-22T12:22:07;8.18;;;3.00;;
46717;SDS011;32448;44.960;-0.698;2022-07-22T12:24:39;8.43;;;2.60;;
46717;SDS011;32448;44.960;-0.698;2022-07-22T12:27:16;9.05;;;2.85;;
46717;SDS011;32448;44.960;-0.698;2022-07-22T12:29:46;8.27;;;2.85;;
46717;SDS011;32448;44.960;-0.698;2022-07-22T12:32:17;8.30;;;3.17;;
46717;SDS011;32448;44.960;-0.698;2022-07-22T12:34:57;8.70;;;3.42;;
46717;SDS011;32448;44.960;-0.698;2022-07-22T12:45:31;7.18;;;3.40;;
46717;SDS011;32448;44.960;-0.698;2022-07-22T12:50:31;5.38;;;2.72;;
46717;SDS011;32448;44.960;-0.698;2022-07-22T12:53:03;5.25;;;2.40;;
46717;SDS011;32448;44.960;-0.698;2022-07-22T12:55:39;6.65;;;3.10;;
46717;SDS011;32448;44.960;-0.698;2022-07-22T12:58:09;5.75;;;2.33;;
46717;SDS011;32448;44.960;-0.698;2022-07-22T13:03:11;6.43;;;2.47;;
46717;SDS011;32448;44.960;-0.698;2022-07-22T13:05:36;4.28;;;2.65;;
46717;SDS011;32448;44.960;-0.698;2022-07-22T13:08:08;6.22;;;2.90;;
46717;SDS011;32448;44.960;-0.698;2022-07-22T13:10:37;7.35;;;2.58;;
46717;SDS011;32448;44.960;-0.698;2022-07-22T13:13:06;6.30;;;2.75;;
46717;SDS011;32448;44.960;-0.698;2022-07-22T13:15:41;7.05;;;2.42;;
46717;SDS011;32448;44.960;-0.698;2022-07-22T13:20:51;6.68;;;2.60;;
46717;SDS011;32448;44.960;-0.698;2022-07-22T13:23:17;5.05;;;2.90;;
46717;SDS011;32448;44.960;-0.698;2022-07-22T13:25:43;8.02;;;2.95;;
46717;SDS011;32448;44.960;-0.698;2022-07-22T13:28:17;3.78;;;2.58;;
46717;SDS011;32448;44.960;-0.698;2022-07-22T13:30:49;6.60;;;3.28;;
46717;SDS011;32448;44.960;-0.698;2022-07-22T13:33:15;5.47;;;2.72;;
46717;SDS011;32448;44.960;-0.698;2022-07-22T13:35:43;5.97;;;2.63;;
46717;SDS011;32448;44.960;-0.698;2022-07-22T13:38:09;6.43;;;2.83;;
46717;SDS011;32448;44.960;-0.698;2022-07-22T13:40:40;9.25;;;2.97;;
46717;SDS011;32448;44.960;-0.698;2022-07-22T13:43:24;7.75;;;2.63;;
46717;SDS011;32448;44.960;-0.698;2022-07-22T13:45:50;5.00;;;2.80;;
46717;SDS011;32448;44.960;-0.698;2022-07-22T13:48:23;6.57;;;2.63;;
46717;SDS011;32448;44.960;-0.698;2022-07-22T13:50:49;6.22;;;2.80;;
46717;SDS011;32448;44.960;-0.698;2022-07-22T13:53:15;7.53;;;3.35;;
46717;SDS011;32448;44.960;-0.698;2022-07-22T13:55:56;9.30;;;3.08;;
46717;SDS011;32448;44.960;-0.698;2022-07-22T13:58:25;5.85;;;2.80;;
46717;SDS011;32448;44.960;-0.698;2022-07-22T14:00:51;8.95;;;2.72;;
46717;SDS011;32448;44.960;-0.698;2022-07-22T14:03:17;7.82;;;3.10;;
46717;SDS011;32448;44.960;-0.698;2022-07-22T14:05:43;5.43;;;2.67;;
46717;SDS011;32448;44.960;-0.698;2022-07-22T14:08:09;6.07;;;2.55;;
46717;SDS011;32448;44.960;-0.698;2022-07-22T14:10:38;5.65;;;2.38;;
46717;SDS011;32448;44.960;-0.698;2022-07-22T14:13:03;5.55;;;2.78;;
46717;SDS011;32448;44.960;-0.698;2022-07-22T14:15:31;6.20;;;2.40;;
46717;SDS011;32448;44.960;-0.698;2022-07-22T14:18:01;7.35;;;2.75;;
46717;SDS011;32448;44.960;-0.698;2022-07-22T14:20:28;4.38;;;2.33;;
46717;SDS011;32448;44.960;-0.698;2022-07-22T14:22:53;4.55;;;2.30;;
46717;SDS011;32448;44.960;-0.698;2022-07-22T14:25:19;6.88;;;2.67;;
46717;SDS011;32448;44.960;-0.698;2022-07-22T14:27:45;5.03;;;2.53;;
46717;SDS011;32448;44.960;-0.698;2022-07-22T14:33:33;4.50;;;2.25;;
46717;SDS011;32448;44.960;-0.698;2022-07-22T14:35:59;4.50;;;2.20;;
46717;SDS011;32448;44.960;-0.698;2022-07-22T14:38:24;5.38;;;2.30;;
46717;SDS011;32448;44.960;-0.698;2022-07-22T14:40:50;5.40;;;2.13;;
46717;SDS011;32448;44.960;-0.698;2022-07-22T14:43:21;4.50;;;2.50;;
46717;SDS011;32448;44.960;-0.698;2022-07-22T14:45:46;5.97;;;2.30;;
46717;SDS011;32448;44.960;-0.698;2022-07-22T14:48:18;5.40;;;2.67;;
46717;SDS011;32448;44.960;-0.698;2022-07-22T14:50:44;6.53;;;2.97;;
46717;SDS011;32448;44.960;-0.698;2022-07-22T14:53:11;7.50;;;2.38;;
46717;SDS011;32448;44.960;-0.698;2022-07-22T14:55:37;8.02;;;2.50;;
46717;SDS011;32448;44.960;-0.698;2022-07-22T14:58:06;7.10;;;2.45;;
46717;SDS011;32448;44.960;-0.698;2022-07-22T15:00:34;6.70;;;2.63;;
46717;SDS011;32448;44.960;-0.698;2022-07-22T15:02:59;5.38;;;2.38;;
46717;SDS011;32448;44.960;-0.698;2022-07-22T15:05:31;4.53;;;2.35;;
46717;SDS011;32448;44.960;-0.698;2022-07-22T15:07:56;4.20;;;2.22;;
46717;SDS011;32448;44.960;-0.698;2022-07-22T15:10:25;5.00;;;2.35;;
46717;SDS011;32448;44.960;-0.698;2022-07-22T15:12:51;4.93;;;2.60;;
46717;SDS011;32448;44.960;-0.698;2022-07-22T15:15:17;5.85;;;2.45;;
46717;SDS011;32448;44.960;-0.698;2022-07-22T15:17:43;3.95;;;2.25;;
46717;SDS011;32448;44.960;-0.698;2022-07-22T15:20:11;4.45;;;2.45;;